createdAt,value
2023-08-09T00:00:57.788Z,96.06
2023-08-09T00:03:24.305Z,96.08
2023-08-09T00:05:50.682Z,96.24
2023-08-09T00:08:17.082Z,96.82
2023-08-09T00:10:43.494Z,96.88
2023-08-09T00:13:09.906Z,96.56
2023-08-09T00:15:36.278Z,95.92
2023-08-09T00:18:02.866Z,96.44
2023-08-09T00:20:29.251Z,96.57
2023-08-09T00:22:55.660Z,96.74
2023-08-09T00:25:22.033Z,97.41
2023-08-09T00:27:48.397Z,97.29
2023-08-09T00:30:14.843Z,96.71
2023-08-09T00:32:42.136Z,96.13
2023-08-09T00:35:09.261Z,96.07
2023-08-09T00:37:35.989Z,96.31
2023-08-09T00:40:03.840Z,95.88
2023-08-09T00:42:30.185Z,96.77
2023-08-09T00:44:56.579Z,97.18
2023-08-09T00:47:22.967Z,97.55
2023-08-09T00:49:49.682Z,97.57
2023-08-09T00:52:16.868Z,97.95
2023-08-09T00:54:43.661Z,97.92
2023-08-09T00:57:10.334Z,97.12
2023-08-09T00:59:36.771Z,97.37
2023-08-09T01:02:03.218Z,97.88
2023-08-09T01:04:29.733Z,98.95
2023-08-09T01:07:21.306Z,99.57
2023-08-09T01:09:54.982Z,100.00
2023-08-09T01:12:29.389Z,100.00
2023-08-09T01:14:59.240Z,100.00
2023-08-09T01:17:28.808Z,100.00
2023-08-09T01:19:57.438Z,100.00
2023-08-09T01:22:35.699Z,100.00
2023-08-09T01:25:04.586Z,100.00
2023-08-09T01:27:32.042Z,100.00
2023-08-09T01:29:58.650Z,100.00
2023-08-09T01:32:26.237Z,100.00
2023-08-09T01:34:53.513Z,100.00
2023-08-09T01:37:35.385Z,100.00
2023-08-09T01:40:05.707Z,100.00
2023-08-09T01:42:32.256Z,100.00
2023-08-09T01:44:59.125Z,100.00
2023-08-09T01:47:25.610Z,100.00
2023-08-09T01:49:51.970Z,100.00
2023-08-09T01:52:18.546Z,100.00
2023-08-09T01:54:44.912Z,100.00
2023-08-09T01:57:11.361Z,100.00
2023-08-09T01:59:37.872Z,100.00
2023-08-09T02:02:04.665Z,100.00
2023-08-09T02:04:31.454Z,100.00
2023-08-09T02:06:57.816Z,100.00
2023-08-09T02:09:24.255Z,100.00
2023-08-09T02:11:50.620Z,100.00
2023-08-09T02:14:16.990Z,100.00
2023-08-09T02:16:43.408Z,100.00
2023-08-09T02:19:09.781Z,100.00
2023-08-09T02:21:39.332Z,100.00
2023-08-09T02:24:06.168Z,100.00
2023-08-09T02:26:32.970Z,100.00
2023-08-09T02:28:59.328Z,100.00
2023-08-09T02:31:25.683Z,100.00
2023-08-09T02:33:52.053Z,100.00
2023-08-09T02:36:18.412Z,100.00
2023-08-09T02:38:44.798Z,100.00
2023-08-09T02:41:11.169Z,100.00
2023-08-09T02:43:37.565Z,100.00
2023-08-09T02:46:04.100Z,100.00
2023-08-09T02:48:30.957Z,100.00
2023-08-09T02:50:57.334Z,100.00
2023-08-09T02:53:37.879Z,100.00
2023-08-09T02:56:04.874Z,100.00
2023-08-09T02:58:31.308Z,100.00
2023-08-09T03:00:57.686Z,100.00
2023-08-09T03:03:24.134Z,100.00
2023-08-09T03:05:50.592Z,100.00
2023-08-09T03:08:16.948Z,100.00
2023-08-09T03:10:43.374Z,100.00
2023-08-09T03:13:09.715Z,100.00
2023-08-09T03:15:36.113Z,100.00
2023-08-09T03:18:02.556Z,100.00
2023-08-09T03:20:29.009Z,100.00
2023-08-09T03:22:55.398Z,100.00
2023-08-09T03:25:21.856Z,100.00
2023-08-09T03:27:48.233Z,100.00
2023-08-09T03:30:14.610Z,100.00
2023-08-09T03:32:41.160Z,100.00
2023-08-09T03:35:08.107Z,100.00
2023-08-09T03:37:35.222Z,100.00
2023-08-09T03:40:01.649Z,100.00
2023-08-09T03:42:28.061Z,100.00
2023-08-09T03:44:54.451Z,100.00
2023-08-09T03:47:20.907Z,100.00
2023-08-09T03:49:47.362Z,100.00
2023-08-09T03:52:13.767Z,100.00
2023-08-09T03:54:40.145Z,100.00
2023-08-09T03:57:06.515Z,100.00
2023-08-09T03:59:32.905Z,100.00
2023-08-09T04:01:59.288Z,100.00
2023-08-09T04:04:25.666Z,100.00
2023-08-09T04:06:52.081Z,100.00
2023-08-09T04:09:18.421Z,100.00
2023-08-09T04:11:44.799Z,100.00
2023-08-09T04:14:11.162Z,100.00
2023-08-09T04:16:37.542Z,100.00
2023-08-09T04:19:03.966Z,100.00
2023-08-09T04:21:30.393Z,100.00
2023-08-09T04:23:56.732Z,100.00
2023-08-09T04:26:23.114Z,100.00
2023-08-09T04:28:49.487Z,100.00
2023-08-09T04:31:15.924Z,100.00
2023-08-09T04:33:42.301Z,100.00
2023-08-09T04:36:08.671Z,100.00
2023-08-09T04:38:35.034Z,100.00
2023-08-09T04:41:01.422Z,100.00
2023-08-09T04:43:27.810Z,100.00
2023-08-09T04:45:54.206Z,100.00
2023-08-09T04:48:20.612Z,100.00
2023-08-09T04:50:47.028Z,100.00
2023-08-09T04:53:13.383Z,100.00
2023-08-09T04:55:39.819Z,99.52
2023-08-09T04:58:06.215Z,98.19
2023-08-09T05:00:32.606Z,97.56
2023-08-09T05:02:58.988Z,97.38
2023-08-09T05:05:25.423Z,97.55
2023-08-09T05:07:51.792Z,97.77
2023-08-09T05:10:18.434Z,97.83
2023-08-09T05:12:44.830Z,97.27
2023-08-09T05:15:12.026Z,97.32
2023-08-09T05:17:38.411Z,97.22
2023-08-09T05:20:05.344Z,96.92
2023-08-09T05:22:31.924Z,97.26
2023-08-09T05:24:58.261Z,97.29
2023-08-09T05:27:24.634Z,97.52
2023-08-09T05:29:50.985Z,97.77
2023-08-09T05:32:17.432Z,98.29
2023-08-09T05:34:43.866Z,98.43
2023-08-09T05:37:10.229Z,98.54
2023-08-09T05:39:36.673Z,98.41
2023-08-09T05:42:03.101Z,97.71
2023-08-09T05:44:29.953Z,96.74
2023-08-09T05:46:56.500Z,96.60
2023-08-09T05:49:22.893Z,96.37
2023-08-09T05:51:49.337Z,96.06
2023-08-09T05:54:15.713Z,95.16
2023-08-09T05:56:42.123Z,93.78
2023-08-09T05:59:08.522Z,93.21
2023-08-09T06:01:34.879Z,92.13
2023-08-09T06:04:01.276Z,91.24
2023-08-09T06:06:27.705Z,91.75
2023-08-09T06:08:54.105Z,90.58
2023-08-09T06:11:20.478Z,89.61
2023-08-09T06:13:47.134Z,88.79
2023-08-09T06:16:13.662Z,87.38
2023-08-09T06:18:40.053Z,87.23
2023-08-09T06:21:06.522Z,86.91
2023-08-09T06:23:32.950Z,86.50
2023-08-09T06:25:59.458Z,87.40
2023-08-09T06:28:25.890Z,86.44
2023-08-09T06:30:52.353Z,86.60
2023-08-09T06:33:18.858Z,86.45
2023-08-09T06:35:45.205Z,86.30
2023-08-09T06:38:15.849Z,85.53
2023-08-09T06:40:42.875Z,86.06
2023-08-09T06:43:09.256Z,84.98
2023-08-09T06:45:35.688Z,83.82
2023-08-09T06:48:02.122Z,83.28
2023-08-09T06:50:28.645Z,83.16
2023-08-09T06:52:55.061Z,84.94
2023-08-09T06:55:21.467Z,84.24
2023-08-09T06:57:47.871Z,82.49
2023-08-09T07:00:14.694Z,83.86
2023-08-09T07:02:41.150Z,83.48
2023-08-09T07:05:10.690Z,83.68
2023-08-09T07:07:37.456Z,83.25
2023-08-09T07:10:04.038Z,82.51
2023-08-09T07:12:30.416Z,80.77
2023-08-09T07:14:56.756Z,81.29
2023-08-09T07:17:23.147Z,83.22
2023-08-09T07:19:49.525Z,82.85
2023-08-09T07:22:15.931Z,81.56
2023-08-09T07:24:42.291Z,82.43
2023-08-09T07:27:08.707Z,80.14
2023-08-09T07:29:35.075Z,79.38
2023-08-09T07:32:01.814Z,79.23
2023-08-09T07:34:28.548Z,79.26
2023-08-09T07:36:54.961Z,79.11
2023-08-09T07:39:21.462Z,78.60
2023-08-09T07:41:47.822Z,79.37
2023-08-09T07:44:14.193Z,78.98
2023-08-09T07:46:40.567Z,76.95
2023-08-09T07:49:07.014Z,77.98
2023-08-09T07:51:33.438Z,76.71
2023-08-09T07:53:59.813Z,77.58
2023-08-09T07:56:26.228Z,76.22
2023-08-09T07:58:52.592Z,76.00
2023-08-09T08:01:18.985Z,77.30
2023-08-09T08:03:45.428Z,75.31
2023-08-09T08:06:11.841Z,75.72
2023-08-09T08:08:38.246Z,75.61
2023-08-09T08:11:04.645Z,76.57
2023-08-09T08:13:31.111Z,76.12
2023-08-09T08:15:57.547Z,75.96
2023-08-09T08:18:24.057Z,72.08
2023-08-09T08:20:50.670Z,73.42
2023-08-09T08:23:17.024Z,73.49
2023-08-09T08:25:43.446Z,72.57
2023-08-09T08:28:09.822Z,71.54
2023-08-09T08:30:36.275Z,69.75
2023-08-09T08:33:02.696Z,69.09
2023-08-09T08:35:29.151Z,69.47
2023-08-09T08:37:55.526Z,68.32
2023-08-09T08:40:23.696Z,69.95
2023-08-09T08:42:51.337Z,69.24
2023-08-09T08:45:18.929Z,69.42
2023-08-09T08:47:46.767Z,66.48
2023-08-09T08:50:15.570Z,66.74
2023-08-09T08:52:44.508Z,64.56
2023-08-09T08:55:12.658Z,63.15
2023-08-09T08:57:40.818Z,62.57
2023-08-09T09:00:12.933Z,63.98
2023-08-09T09:02:44.589Z,66.72
2023-08-09T09:05:12.588Z,64.33
2023-08-09T09:07:39.931Z,64.78
2023-08-09T09:10:08.165Z,64.09
2023-08-09T09:12:34.630Z,65.31
2023-08-09T09:15:01.041Z,62.55
2023-08-09T09:17:27.644Z,63.84
2023-08-09T09:19:54.100Z,62.67
2023-08-09T09:22:28.690Z,64.82
2023-08-09T09:24:59.732Z,65.01
2023-08-09T09:27:30.375Z,61.77
2023-08-09T09:30:00.919Z,62.30
2023-08-09T09:32:27.370Z,61.65
2023-08-09T09:34:53.759Z,61.74
2023-08-09T09:37:24.452Z,61.86
2023-08-09T09:39:50.906Z,62.13
2023-08-09T09:42:17.303Z,60.28
2023-08-09T09:44:44.913Z,55.37
2023-08-09T09:47:11.332Z,58.53
2023-08-09T09:49:37.954Z,60.47
2023-08-09T09:52:05.504Z,58.28
2023-08-09T09:54:32.894Z,57.66
2023-08-09T09:56:59.251Z,57.47
2023-08-09T09:59:25.863Z,56.48
2023-08-09T10:01:53.389Z,59.08
2023-08-09T10:04:20.673Z,56.87
2023-08-09T10:06:49.186Z,57.83
2023-08-09T10:09:17.487Z,57.61
2023-08-09T10:11:44.954Z,57.91
2023-08-09T10:14:12.428Z,57.64
2023-08-09T10:16:39.632Z,56.48
2023-08-09T10:19:15.258Z,55.40
2023-08-09T10:21:41.868Z,54.71
2023-08-09T10:24:13.464Z,50.94
2023-08-09T10:26:42.155Z,52.60
2023-08-09T10:29:11.115Z,51.78
2023-08-09T10:32:09.740Z,51.41
2023-08-09T10:34:42.658Z,51.80
2023-08-09T10:37:24.609Z,52.53
2023-08-09T10:40:14.345Z,53.02
2023-08-09T10:42:40.850Z,55.81
2023-08-09T10:45:07.809Z,52.84
2023-08-09T10:47:34.208Z,52.96
2023-08-09T10:50:01.219Z,52.53
2023-08-09T10:52:42.380Z,49.70
2023-08-09T10:55:20.685Z,49.27
2023-08-09T10:57:48.841Z,50.54
2023-08-09T11:00:16.371Z,50.09
2023-08-09T11:02:50.250Z,50.16
2023-08-09T11:05:17.722Z,49.04
2023-08-09T11:07:53.034Z,48.73
2023-08-09T11:10:35.134Z,49.97
2023-08-09T11:13:09.222Z,49.70
2023-08-09T11:15:36.519Z,48.35
2023-08-09T11:18:03.405Z,45.20
2023-08-09T11:20:30.173Z,47.41
2023-08-09T11:22:58.829Z,48.09
2023-08-09T11:25:27.142Z,49.96
2023-08-09T11:27:54.992Z,47.32
2023-08-09T11:30:21.867Z,47.54
2023-08-09T11:33:05.352Z,46.60
2023-08-09T11:35:34.154Z,49.81
2023-08-09T11:38:00.786Z,46.74
2023-08-09T11:40:27.772Z,46.57
2023-08-09T11:42:58.123Z,45.44
2023-08-09T11:45:24.881Z,45.14
2023-08-09T11:47:53.835Z,47.63
2023-08-09T11:50:24.388Z,48.07
2023-08-09T11:52:55.535Z,48.15
2023-08-09T11:55:24.737Z,48.50
2023-08-09T11:57:51.503Z,47.61
2023-08-09T12:00:18.089Z,47.88
2023-08-09T12:02:45.195Z,46.70
2023-08-09T12:05:14.973Z,47.19
2023-08-09T12:07:42.367Z,48.72
2023-08-09T12:10:13.145Z,49.83
2023-08-09T12:12:40.548Z,49.72
2023-08-09T12:15:09.887Z,48.58
2023-08-09T12:17:36.502Z,47.32
2023-08-09T12:20:05.896Z,46.59
2023-08-09T12:22:32.423Z,45.93
2023-08-09T12:24:59.698Z,46.38
2023-08-09T12:27:26.805Z,44.15
2023-08-09T12:29:53.550Z,44.75
2023-08-09T12:32:20.738Z,45.01
2023-08-09T12:34:47.423Z,43.73
2023-08-09T12:37:14.991Z,45.09
2023-08-09T12:39:41.371Z,43.56
2023-08-09T12:42:07.712Z,45.32
2023-08-09T12:44:34.077Z,43.97
2023-08-09T12:47:00.729Z,46.86
2023-08-09T12:49:27.274Z,41.20
2023-08-09T12:51:53.645Z,42.25
2023-08-09T12:54:20.116Z,40.80
2023-08-09T12:56:46.563Z,42.62
2023-08-09T12:59:12.951Z,43.85
2023-08-09T13:01:39.394Z,44.55
2023-08-09T13:04:06.193Z,44.03
2023-08-09T13:06:32.710Z,43.84
2023-08-09T13:09:00.855Z,43.49
2023-08-09T13:11:27.405Z,40.90
2023-08-09T13:13:55.109Z,42.46
2023-08-09T13:16:21.564Z,43.42
2023-08-09T13:18:47.979Z,43.40
2023-08-09T13:21:17.181Z,45.46
2023-08-09T13:23:44.555Z,45.79
2023-08-09T13:26:11.128Z,46.44
2023-08-09T13:28:37.516Z,44.69
2023-08-09T13:31:03.981Z,43.46
2023-08-09T13:33:30.486Z,43.67
2023-08-09T13:35:56.904Z,40.76
2023-08-09T13:38:28.962Z,39.35
2023-08-09T13:40:57.243Z,41.00
2023-08-09T13:43:24.733Z,42.21
2023-08-09T13:45:51.167Z,42.32
2023-08-09T13:48:17.675Z,41.80
2023-08-09T13:50:47.034Z,42.77
2023-08-09T13:53:14.112Z,42.54
2023-08-09T13:55:42.371Z,42.99
2023-08-09T13:58:08.757Z,45.05
2023-08-09T14:00:35.525Z,44.29
2023-08-09T14:03:01.957Z,43.30
2023-08-09T14:05:28.405Z,41.70
2023-08-09T14:07:54.776Z,41.27
2023-08-09T14:10:21.143Z,42.21
2023-08-09T14:12:47.526Z,41.30
2023-08-09T14:15:13.907Z,42.93
2023-08-09T14:17:40.434Z,43.29
2023-08-09T14:20:07.453Z,43.45
2023-08-09T14:22:33.900Z,44.17
2023-08-09T14:25:00.248Z,43.34
2023-08-09T14:27:26.643Z,45.34
2023-08-09T14:29:53.917Z,47.78
2023-08-09T14:32:21.096Z,46.44
2023-08-09T14:34:47.589Z,46.31
2023-08-09T14:37:14.050Z,44.17
2023-08-09T14:39:40.623Z,42.62
2023-08-09T14:42:07.341Z,42.52
2023-08-09T14:44:33.688Z,41.86
2023-08-09T14:47:00.150Z,41.36
2023-08-09T14:49:26.574Z,43.20
2023-08-09T14:51:52.954Z,43.89
2023-08-09T14:54:32.733Z,42.41
2023-08-09T14:57:03.820Z,44.06
2023-08-09T14:59:30.424Z,44.73
2023-08-09T15:01:56.790Z,43.72
2023-08-09T15:04:23.154Z,46.15
2023-08-09T15:06:49.513Z,45.04
2023-08-09T15:09:15.881Z,45.05
2023-08-09T15:11:42.297Z,45.76
2023-08-09T15:14:08.764Z,46.10
2023-08-09T15:16:35.370Z,45.42
2023-08-09T15:19:01.792Z,46.39
2023-08-09T15:21:28.176Z,47.29
2023-08-09T15:23:54.571Z,49.02
2023-08-09T15:26:21.533Z,48.71
2023-08-09T15:28:47.985Z,49.63
2023-08-09T15:31:14.440Z,47.41
2023-08-09T15:33:40.848Z,47.58
2023-08-09T15:36:07.218Z,48.88
2023-08-09T15:38:33.601Z,48.87
2023-08-09T15:41:03.394Z,49.42
2023-08-09T15:43:29.776Z,47.64
2023-08-09T15:45:56.152Z,49.21
2023-08-09T15:48:22.606Z,48.46
2023-08-09T15:50:49.007Z,50.65
2023-08-09T15:53:15.367Z,50.00
2023-08-09T15:55:43.183Z,49.40
2023-08-09T15:58:11.003Z,50.94
2023-08-09T16:00:49.713Z,50.97
2023-08-09T16:03:21.526Z,49.90
2023-08-09T16:05:48.045Z,50.93
2023-08-09T16:08:14.408Z,51.28
2023-08-09T16:10:40.792Z,50.44
2023-08-09T16:13:07.177Z,51.88
2023-08-09T16:15:33.735Z,49.85
2023-08-09T16:18:00.287Z,49.49
2023-08-09T16:20:27.021Z,50.46
2023-08-09T16:22:53.418Z,49.78
2023-08-09T16:25:19.813Z,48.43
2023-08-09T16:27:46.603Z,48.70
2023-08-09T16:30:13.804Z,48.91
2023-08-09T16:32:41.041Z,47.56
2023-08-09T16:35:08.111Z,48.13
2023-08-09T16:37:34.481Z,48.02
2023-08-09T16:40:00.840Z,47.28
2023-08-09T16:42:27.234Z,49.32
2023-08-09T16:44:53.626Z,51.49
2023-08-09T16:47:20.035Z,51.80
2023-08-09T16:49:46.392Z,53.58
2023-08-09T16:52:12.743Z,55.19
2023-08-09T16:54:39.085Z,54.26
2023-08-09T16:57:06.076Z,54.26
2023-08-09T16:59:32.668Z,55.72
2023-08-09T17:01:59.067Z,55.23
2023-08-09T17:04:25.442Z,55.41
2023-08-09T17:06:52.537Z,55.85
2023-08-09T17:09:18.874Z,55.66
2023-08-09T17:11:45.221Z,54.61
2023-08-09T17:14:11.591Z,54.58
2023-08-09T17:16:38.007Z,54.79
2023-08-09T17:19:04.567Z,56.64
2023-08-09T17:21:30.964Z,55.58
2023-08-09T17:23:57.395Z,54.48
2023-08-09T17:26:23.753Z,55.52
2023-08-09T17:28:50.138Z,55.22
2023-08-09T17:31:16.531Z,54.61
2023-08-09T17:33:43.366Z,55.84
2023-08-09T17:36:11.936Z,56.84
2023-08-09T17:38:39.929Z,56.62
2023-08-09T17:41:06.321Z,56.91
2023-08-09T17:43:33.255Z,56.54
2023-08-09T17:45:59.754Z,57.60
2023-08-09T17:48:26.218Z,57.77
2023-08-09T17:50:52.616Z,58.91
2023-08-09T17:53:19.004Z,58.67
2023-08-09T17:55:45.418Z,59.55
2023-08-09T17:58:11.767Z,60.57
2023-08-09T18:00:38.118Z,61.29
2023-08-09T18:03:04.916Z,61.35
2023-08-09T18:05:31.305Z,61.39
2023-08-09T18:07:57.659Z,61.71
2023-08-09T18:10:24.155Z,62.01
2023-08-09T18:12:50.545Z,62.67
2023-08-09T18:15:18.064Z,62.27
2023-08-09T18:17:44.547Z,63.01
2023-08-09T18:20:11.594Z,63.91
2023-08-09T18:22:48.682Z,64.32
2023-08-09T18:25:15.094Z,64.99
2023-08-09T18:27:41.708Z,65.22
2023-08-09T18:30:08.361Z,65.24
2023-08-09T18:32:34.808Z,65.11
2023-08-09T18:35:16.136Z,65.24
2023-08-09T18:37:44.949Z,64.95
2023-08-09T18:40:11.594Z,65.71
2023-08-09T18:42:38.474Z,66.18
2023-08-09T18:45:05.741Z,66.69
2023-08-09T18:47:32.885Z,66.93
2023-08-09T18:49:59.697Z,67.45
2023-08-09T18:52:26.126Z,67.49
2023-08-09T18:54:52.536Z,67.01
2023-08-09T18:57:18.918Z,67.80
2023-08-09T18:59:45.275Z,68.57
2023-08-09T19:02:11.705Z,69.96
2023-08-09T19:04:38.796Z,70.13
2023-08-09T19:07:05.720Z,70.43
2023-08-09T19:09:32.318Z,70.55
2023-08-09T19:11:58.814Z,70.31
2023-08-09T19:14:25.163Z,70.82
2023-08-09T19:16:51.525Z,71.24
2023-08-09T19:19:17.921Z,73.33
2023-08-09T19:21:44.283Z,73.95
2023-08-09T19:24:10.722Z,75.38
2023-08-09T19:26:37.068Z,75.21
2023-08-09T19:29:03.500Z,75.72
2023-08-09T19:31:29.881Z,76.16
2023-08-09T19:33:56.302Z,76.26
2023-08-09T19:36:22.695Z,76.79
2023-08-09T19:38:49.073Z,78.06
2023-08-09T19:41:15.438Z,77.64
2023-08-09T19:43:41.800Z,77.71
2023-08-09T19:46:08.280Z,77.28
2023-08-09T19:48:34.724Z,77.22
2023-08-09T19:51:01.111Z,77.57
2023-08-09T19:53:27.585Z,77.26
2023-08-09T19:55:53.990Z,77.73
2023-08-09T19:58:20.400Z,77.24
2023-08-09T20:00:46.823Z,76.96
2023-08-09T20:03:13.449Z,77.03
2023-08-09T20:05:39.940Z,77.20
2023-08-09T20:08:07.046Z,77.65
2023-08-09T20:10:34.492Z,78.42
2023-08-09T20:13:00.853Z,78.41
2023-08-09T20:15:27.284Z,78.53
2023-08-09T20:17:53.658Z,79.03
2023-08-09T20:20:20.232Z,79.76
2023-08-09T20:22:46.596Z,80.12
2023-08-09T20:25:12.945Z,80.81
2023-08-09T20:27:39.293Z,80.81
2023-08-09T20:30:06.272Z,81.03
2023-08-09T20:32:33.324Z,81.36
2023-08-09T20:34:59.757Z,81.51
2023-08-09T20:37:26.106Z,81.31
2023-08-09T20:39:52.472Z,81.29
2023-08-09T20:42:18.807Z,81.34
2023-08-09T20:44:45.158Z,81.33
2023-08-09T20:47:11.500Z,81.67
2023-08-09T20:49:37.870Z,81.76
2023-08-09T20:52:04.523Z,81.77
2023-08-09T20:54:31.104Z,81.94
2023-08-09T20:56:57.472Z,82.13
2023-08-09T20:59:23.848Z,82.33
2023-08-09T21:01:50.224Z,82.83
2023-08-09T21:04:16.610Z,83.17
2023-08-09T21:06:42.961Z,83.63
2023-08-09T21:09:09.339Z,84.00
2023-08-09T21:11:35.691Z,84.19
2023-08-09T21:14:02.054Z,84.16
2023-08-09T21:16:28.457Z,84.06
2023-08-09T21:18:54.836Z,84.00
2023-08-09T21:21:21.287Z,83.75
2023-08-09T21:26:16.938Z,83.07
2023-08-09T21:28:47.355Z,83.45
2023-08-09T21:31:15.125Z,83.20
2023-08-09T21:33:41.498Z,83.68
2023-08-09T21:36:08.028Z,83.38
2023-08-09T21:38:34.462Z,83.12
2023-08-09T21:41:01.224Z,83.53
2023-08-09T21:43:28.402Z,83.53
2023-08-09T21:45:55.069Z,83.08
2023-08-09T21:48:22.163Z,83.27
2023-08-09T21:50:51.631Z,83.32
2023-08-09T21:53:21.427Z,83.13
2023-08-09T21:55:48.401Z,82.41
2023-08-09T21:58:15.592Z,82.13
2023-08-09T22:00:42.796Z,82.22
2023-08-09T22:03:09.646Z,82.31
2023-08-09T22:05:36.386Z,82.18
2023-08-09T22:08:02.856Z,82.50
2023-08-09T22:10:29.724Z,81.93
2023-08-09T22:12:56.089Z,82.33
2023-08-09T22:15:22.681Z,81.75
2023-08-09T22:17:49.057Z,81.31
2023-08-09T22:20:15.475Z,81.46
2023-08-09T22:22:41.868Z,81.24
2023-08-09T22:25:08.538Z,81.53
2023-08-09T22:27:35.163Z,82.20
2023-08-09T22:30:01.558Z,82.46
2023-08-09T22:32:27.963Z,83.08
2023-08-09T22:34:54.379Z,83.71
2023-08-09T22:37:20.738Z,84.28
2023-08-09T22:39:47.082Z,84.55
2023-08-09T22:42:13.919Z,84.30
2023-08-09T22:44:40.305Z,84.45
2023-08-09T22:47:06.963Z,84.75
2023-08-09T22:49:33.362Z,84.87
2023-08-09T22:52:00.401Z,85.18
2023-08-09T22:54:26.785Z,85.86
2023-08-09T22:56:53.149Z,86.98
2023-08-09T22:59:19.506Z,87.20
2023-08-09T23:01:45.868Z,87.54
2023-08-09T23:04:12.292Z,87.23
2023-08-09T23:06:40.768Z,87.43
2023-08-09T23:09:07.443Z,87.57
2023-08-09T23:11:33.821Z,87.71
2023-08-09T23:14:00.207Z,87.31
2023-08-09T23:16:26.618Z,87.76
2023-08-09T23:18:53.066Z,87.55
2023-08-09T23:21:19.427Z,87.56
2023-08-09T23:23:45.826Z,87.44
2023-08-09T23:26:12.267Z,87.64
2023-08-09T23:28:38.615Z,88.02
2023-08-09T23:31:04.990Z,87.96
2023-08-09T23:33:31.505Z,87.63
2023-08-09T23:35:57.956Z,87.74
2023-08-09T23:38:24.498Z,87.72
2023-08-09T23:40:51.003Z,87.41
2023-08-09T23:43:17.490Z,87.71
2023-08-09T23:45:44.022Z,87.67
2023-08-09T23:48:10.434Z,88.15
2023-08-09T23:50:36.906Z,88.07
2023-08-09T23:53:03.413Z,87.98
2023-08-09T23:55:29.766Z,88.05
2023-08-09T23:57:56.146Z,88.41
